sensor_id;sensor_type;location;lat;lon;timestamp;P1;durP1;ratioP1;P2;durP2;ratioP2
52620;SDS011;38515;53.160;6.990;2023-06-22T00:01:56;100.53;;;94.75;;
52620;SDS011;38515;53.160;6.990;2023-06-22T00:04:22;67.82;;;62.80;;
52620;SDS011;38515;53.160;6.990;2023-06-22T00:06:48;89.55;;;84.38;;
52620;SDS011;38515;53.160;6.990;2023-06-22T00:09:13;105.00;;;99.13;;
52620;SDS011;38515;53.160;6.990;2023-06-22T00:11:39;90.97;;;85.13;;
52620;SDS011;38515;53.160;6.990;2023-06-22T00:14:05;95.35;;;89.57;;
52620;SDS011;38515;53.160;6.990;2023-06-22T00:16:32;120.45;;;113.88;;
52620;SDS011;38515;53.160;6.990;2023-06-22T00:18:58;143.43;;;135.05;;
52620;SDS011;38515;53.160;6.990;2023-06-22T00:21:29;107.28;;;100.38;;
52620;SDS011;38515;53.160;6.990;2023-06-22T00:23:56;123.78;;;116.97;;
52620;SDS011;38515;53.160;6.990;2023-06-22T00:26:22;111.70;;;104.90;;
52620;SDS011;38515;53.160;6.990;2023-06-22T00:28:48;97.70;;;91.82;;
52620;SDS011;38515;53.160;6.990;2023-06-22T00:31:14;96.68;;;90.70;;
52620;SDS011;38515;53.160;6.990;2023-06-22T00:33:40;106.95;;;100.85;;
52620;SDS011;38515;53.160;6.990;2023-06-22T00:36:06;89.00;;;83.85;;
52620;SDS011;38515;53.160;6.990;2023-06-22T00:38:38;92.32;;;86.63;;
52620;SDS011;38515;53.160;6.990;2023-06-22T00:41:05;119.82;;;112.97;;
52620;SDS011;38515;53.160;6.990;2023-06-22T00:43:31;124.25;;;117.47;;
52620;SDS011;38515;53.160;6.990;2023-06-22T00:45:57;122.97;;;116.25;;
52620;SDS011;38515;53.160;6.990;2023-06-22T00:48:23;117.22;;;110.88;;
52620;SDS011;38515;53.160;6.990;2023-06-22T00:50:49;117.40;;;110.97;;
52620;SDS011;38515;53.160;6.990;2023-06-22T00:53:16;130.07;;;122.90;;
52620;SDS011;38515;53.160;6.990;2023-06-22T00:55:42;130.52;;;123.68;;
52620;SDS011;38515;53.160;6.990;2023-06-22T00:58:10;172.05;;;163.48;;
52620;SDS011;38515;53.160;6.990;2023-06-22T01:00:37;117.10;;;110.18;;
52620;SDS011;38515;53.160;6.990;2023-06-22T01:03:03;105.85;;;100.03;;
52620;SDS011;38515;53.160;6.990;2023-06-22T01:05:34;118.07;;;111.80;;
52620;SDS011;38515;53.160;6.990;2023-06-22T01:08:05;150.73;;;142.95;;
52620;SDS011;38515;53.160;6.990;2023-06-22T01:10:46;134.30;;;126.63;;
52620;SDS011;38515;53.160;6.990;2023-06-22T01:16:26;156.57;;;147.88;;
52620;SDS011;38515;53.160;6.990;2023-06-22T01:18:55;163.02;;;154.23;;
52620;SDS011;38515;53.160;6.990;2023-06-22T01:21:26;147.82;;;139.35;;
52620;SDS011;38515;53.160;6.990;2023-06-22T01:29:11;159.02;;;150.75;;
52620;SDS011;38515;53.160;6.990;2023-06-22T01:31:39;151.07;;;142.77;;
52620;SDS011;38515;53.160;6.990;2023-06-22T01:34:06;180.38;;;170.75;;
52620;SDS011;38515;53.160;6.990;2023-06-22T01:36:34;152.45;;;144.18;;
52620;SDS011;38515;53.160;6.990;2023-06-22T01:39:00;137.13;;;129.15;;
52620;SDS011;38515;53.160;6.990;2023-06-22T01:41:29;153.57;;;145.13;;
52620;SDS011;38515;53.160;6.990;2023-06-22T01:43:59;152.50;;;144.40;;
52620;SDS011;38515;53.160;6.990;2023-06-22T01:46:26;159.65;;;150.70;;
52620;SDS011;38515;53.160;6.990;2023-06-22T01:48:55;154.63;;;145.10;;
52620;SDS011;38515;53.160;6.990;2023-06-22T01:51:21;222.25;;;209.77;;
52620;SDS011;38515;53.160;6.990;2023-06-22T01:53:47;237.45;;;224.18;;
52620;SDS011;38515;53.160;6.990;2023-06-22T01:56:15;177.77;;;167.85;;
52620;SDS011;38515;53.160;6.990;2023-06-22T01:59:00;226.57;;;214.00;;
52620;SDS011;38515;53.160;6.990;2023-06-22T02:01:41;225.32;;;211.85;;
52620;SDS011;38515;53.160;6.990;2023-06-22T02:04:12;243.93;;;229.25;;
52620;SDS011;38515;53.160;6.990;2023-06-22T02:06:45;213.75;;;201.00;;
52620;SDS011;38515;53.160;6.990;2023-06-22T02:09:17;221.45;;;208.43;;
52620;SDS011;38515;53.160;6.990;2023-06-22T02:11:46;267.30;;;251.20;;
52620;SDS011;38515;53.160;6.990;2023-06-22T02:14:13;269.30;;;254.65;;
52620;SDS011;38515;53.160;6.990;2023-06-22T02:16:40;314.52;;;295.92;;
52620;SDS011;38515;53.160;6.990;2023-06-22T02:19:07;243.98;;;229.73;;
52620;SDS011;38515;53.160;6.990;2023-06-22T02:21:33;242.45;;;227.85;;
52620;SDS011;38515;53.160;6.990;2023-06-22T02:23:59;246.73;;;231.80;;
52620;SDS011;38515;53.160;6.990;2023-06-22T02:26:25;248.77;;;233.95;;
52620;SDS011;38515;53.160;6.990;2023-06-22T02:28:52;203.05;;;190.10;;
52620;SDS011;38515;53.160;6.990;2023-06-22T02:31:18;203.45;;;189.88;;
52620;SDS011;38515;53.160;6.990;2023-06-22T02:33:45;269.20;;;254.02;;
52620;SDS011;38515;53.160;6.990;2023-06-22T02:36:11;117.45;;;109.88;;
52620;SDS011;38515;53.160;6.990;2023-06-22T02:38:41;95.95;;;89.13;;
52620;SDS011;38515;53.160;6.990;2023-06-22T02:41:13;181.73;;;170.65;;
52620;SDS011;38515;53.160;6.990;2023-06-22T02:43:43;223.57;;;210.52;;
52620;SDS011;38515;53.160;6.990;2023-06-22T02:46:10;204.90;;;192.10;;
52620;SDS011;38515;53.160;6.990;2023-06-22T02:48:38;199.15;;;186.90;;
52620;SDS011;38515;53.160;6.990;2023-06-22T02:51:07;216.82;;;204.25;;
52620;SDS011;38515;53.160;6.990;2023-06-22T02:53:35;260.63;;;244.38;;
52620;SDS011;38515;53.160;6.990;2023-06-22T02:56:02;229.95;;;216.52;;
52620;SDS011;38515;53.160;6.990;2023-06-22T02:58:31;278.98;;;259.90;;
52620;SDS011;38515;53.160;6.990;2023-06-22T03:01:04;190.15;;;177.63;;
52620;SDS011;38515;53.160;6.990;2023-06-22T03:03:31;210.15;;;196.25;;
52620;SDS011;38515;53.160;6.990;2023-06-22T03:05:56;367.88;;;344.48;;
52620;SDS011;38515;53.160;6.990;2023-06-22T03:08:22;211.23;;;197.45;;
52620;SDS011;38515;53.160;6.990;2023-06-22T03:10:48;322.45;;;301.42;;
52620;SDS011;38515;53.160;6.990;2023-06-22T03:13:14;308.67;;;289.88;;
52620;SDS011;38515;53.160;6.990;2023-06-22T03:15:40;213.90;;;200.60;;
52620;SDS011;38515;53.160;6.990;2023-06-22T03:18:06;261.23;;;244.88;;
52620;SDS011;38515;53.160;6.990;2023-06-22T03:20:32;245.95;;;230.75;;
52620;SDS011;38515;53.160;6.990;2023-06-22T03:22:58;222.35;;;207.85;;
52620;SDS011;38515;53.160;6.990;2023-06-22T03:25:25;215.27;;;200.15;;
52620;SDS011;38515;53.160;6.990;2023-06-22T03:27:51;221.70;;;208.27;;
52620;SDS011;38515;53.160;6.990;2023-06-22T03:30:16;295.02;;;277.20;;
52620;SDS011;38515;53.160;6.990;2023-06-22T03:32:42;249.80;;;234.88;;
52620;SDS011;38515;53.160;6.990;2023-06-22T03:35:08;236.57;;;221.10;;
52620;SDS011;38515;53.160;6.990;2023-06-22T03:37:35;334.42;;;313.95;;
52620;SDS011;38515;53.160;6.990;2023-06-22T03:40:02;218.82;;;205.27;;
52620;SDS011;38515;53.160;6.990;2023-06-22T03:42:30;218.00;;;203.73;;
52620;SDS011;38515;53.160;6.990;2023-06-22T03:44:58;239.23;;;223.75;;
52620;SDS011;38515;53.160;6.990;2023-06-22T03:47:26;257.90;;;241.35;;
52620;SDS011;38515;53.160;6.990;2023-06-22T03:49:52;190.52;;;178.30;;
52620;SDS011;38515;53.160;6.990;2023-06-22T03:52:20;246.98;;;231.40;;
52620;SDS011;38515;53.160;6.990;2023-06-22T03:54:47;226.32;;;212.38;;
52620;SDS011;38515;53.160;6.990;2023-06-22T03:57:13;235.07;;;219.45;;
52620;SDS011;38515;53.160;6.990;2023-06-22T03:59:39;248.05;;;232.60;;
52620;SDS011;38515;53.160;6.990;2023-06-22T04:02:05;215.90;;;200.55;;
52620;SDS011;38515;53.160;6.990;2023-06-22T04:04:31;239.77;;;224.77;;
52620;SDS011;38515;53.160;6.990;2023-06-22T04:06:57;241.48;;;226.27;;
52620;SDS011;38515;53.160;6.990;2023-06-22T04:09:23;219.00;;;204.95;;
52620;SDS011;38515;53.160;6.990;2023-06-22T04:11:49;272.45;;;255.63;;
52620;SDS011;38515;53.160;6.990;2023-06-22T04:14:15;239.13;;;222.43;;
52620;SDS011;38515;53.160;6.990;2023-06-22T04:16:40;234.98;;;218.48;;
52620;SDS011;38515;53.160;6.990;2023-06-22T04:19:06;247.50;;;232.60;;
52620;SDS011;38515;53.160;6.990;2023-06-22T04:21:32;193.45;;;181.10;;
52620;SDS011;38515;53.160;6.990;2023-06-22T04:23:58;197.95;;;185.38;;
52620;SDS011;38515;53.160;6.990;2023-06-22T04:26:24;186.15;;;173.70;;
52620;SDS011;38515;53.160;6.990;2023-06-22T04:28:50;202.10;;;188.35;;
52620;SDS011;38515;53.160;6.990;2023-06-22T04:31:16;160.57;;;149.38;;
52620;SDS011;38515;53.160;6.990;2023-06-22T04:33:46;187.10;;;174.65;;
52620;SDS011;38515;53.160;6.990;2023-06-22T04:36:11;182.60;;;169.43;;
52620;SDS011;38515;53.160;6.990;2023-06-22T04:38:38;152.95;;;142.18;;
52620;SDS011;38515;53.160;6.990;2023-06-22T04:41:05;273.17;;;255.35;;
52620;SDS011;38515;53.160;6.990;2023-06-22T04:43:33;283.20;;;265.35;;
52620;SDS011;38515;53.160;6.990;2023-06-22T04:45:59;196.57;;;183.82;;
52620;SDS011;38515;53.160;6.990;2023-06-22T04:48:31;185.60;;;172.43;;
52620;SDS011;38515;53.160;6.990;2023-06-22T04:51:01;177.43;;;165.07;;
52620;SDS011;38515;53.160;6.990;2023-06-22T04:53:32;208.90;;;195.70;;
52620;SDS011;38515;53.160;6.990;2023-06-22T04:55:58;152.80;;;142.00;;
52620;SDS011;38515;53.160;6.990;2023-06-22T04:58:23;193.77;;;180.50;;
52620;SDS011;38515;53.160;6.990;2023-06-22T05:00:53;210.25;;;195.73;;
52620;SDS011;38515;53.160;6.990;2023-06-22T05:03:22;229.88;;;216.32;;
52620;SDS011;38515;53.160;6.990;2023-06-22T05:05:51;149.77;;;139.38;;
52620;SDS011;38515;53.160;6.990;2023-06-22T05:08:17;188.40;;;175.35;;
52620;SDS011;38515;53.160;6.990;2023-06-22T05:10:43;256.35;;;241.73;;
52620;SDS011;38515;53.160;6.990;2023-06-22T05:13:09;160.43;;;149.02;;
52620;SDS011;38515;53.160;6.990;2023-06-22T05:15:35;158.20;;;147.15;;
52620;SDS011;38515;53.160;6.990;2023-06-22T05:18:05;140.55;;;131.27;;
52620;SDS011;38515;53.160;6.990;2023-06-22T05:20:31;203.85;;;191.18;;
52620;SDS011;38515;53.160;6.990;2023-06-22T05:22:59;176.70;;;166.88;;
52620;SDS011;38515;53.160;6.990;2023-06-22T05:25:25;177.77;;;167.48;;
52620;SDS011;38515;53.160;6.990;2023-06-22T05:27:52;163.48;;;154.48;;
52620;SDS011;38515;53.160;6.990;2023-06-22T05:30:18;239.27;;;227.32;;
52620;SDS011;38515;53.160;6.990;2023-06-22T05:32:44;177.05;;;167.48;;
52620;SDS011;38515;53.160;6.990;2023-06-22T05:35:10;162.90;;;153.93;;
52620;SDS011;38515;53.160;6.990;2023-06-22T05:37:35;132.38;;;124.95;;
52620;SDS011;38515;53.160;6.990;2023-06-22T05:40:04;172.32;;;163.68;;
52620;SDS011;38515;53.160;6.990;2023-06-22T05:42:32;155.45;;;147.18;;
52620;SDS011;38515;53.160;6.990;2023-06-22T05:44:58;209.68;;;198.73;;
52620;SDS011;38515;53.160;6.990;2023-06-22T05:47:24;302.50;;;287.38;;
52620;SDS011;38515;53.160;6.990;2023-06-22T05:49:50;262.13;;;249.15;;
52620;SDS011;38515;53.160;6.990;2023-06-22T05:52:16;159.05;;;150.60;;
52620;SDS011;38515;53.160;6.990;2023-06-22T05:54:42;252.20;;;239.93;;
52620;SDS011;38515;53.160;6.990;2023-06-22T05:57:08;286.48;;;272.25;;
52620;SDS011;38515;53.160;6.990;2023-06-22T05:59:34;182.88;;;173.57;;
52620;SDS011;38515;53.160;6.990;2023-06-22T06:02:00;164.27;;;155.98;;
52620;SDS011;38515;53.160;6.990;2023-06-22T06:04:25;185.38;;;175.73;;
52620;SDS011;38515;53.160;6.990;2023-06-22T06:06:51;191.77;;;183.18;;
52620;SDS011;38515;53.160;6.990;2023-06-22T06:09:17;66.43;;;62.17;;
52620;SDS011;38515;53.160;6.990;2023-06-22T06:11:44;77.40;;;73.25;;
52620;SDS011;38515;53.160;6.990;2023-06-22T06:14:10;94.05;;;89.53;;
52620;SDS011;38515;53.160;6.990;2023-06-22T06:16:36;98.43;;;93.30;;
52620;SDS011;38515;53.160;6.990;2023-06-22T06:19:02;103.25;;;98.30;;
52620;SDS011;38515;53.160;6.990;2023-06-22T06:21:28;100.03;;;95.38;;
52620;SDS011;38515;53.160;6.990;2023-06-22T06:23:53;101.13;;;95.97;;
52620;SDS011;38515;53.160;6.990;2023-06-22T06:26:19;86.15;;;81.60;;
52620;SDS011;38515;53.160;6.990;2023-06-22T06:28:53;76.30;;;72.25;;
52620;SDS011;38515;53.160;6.990;2023-06-22T06:31:20;108.88;;;103.07;;
52620;SDS011;38515;53.160;6.990;2023-06-22T06:33:46;113.85;;;108.25;;
52620;SDS011;38515;53.160;6.990;2023-06-22T06:36:12;85.97;;;81.57;;
52620;SDS011;38515;53.160;6.990;2023-06-22T06:38:37;82.43;;;77.88;;
52620;SDS011;38515;53.160;6.990;2023-06-22T06:41:03;76.93;;;72.65;;
52620;SDS011;38515;53.160;6.990;2023-06-22T06:43:29;87.95;;;83.32;;
52620;SDS011;38515;53.160;6.990;2023-06-22T06:45:55;98.82;;;93.72;;
52620;SDS011;38515;53.160;6.990;2023-06-22T06:48:21;81.03;;;77.22;;
52620;SDS011;38515;53.160;6.990;2023-06-22T06:50:47;80.70;;;76.72;;
52620;SDS011;38515;53.160;6.990;2023-06-22T06:53:13;136.15;;;129.52;;
52620;SDS011;38515;53.160;6.990;2023-06-22T06:55:39;96.22;;;91.60;;
52620;SDS011;38515;53.160;6.990;2023-06-22T06:58:05;102.45;;;97.40;;
52620;SDS011;38515;53.160;6.990;2023-06-22T07:00:33;117.18;;;112.00;;
52620;SDS011;38515;53.160;6.990;2023-06-22T07:03:00;95.72;;;90.97;;
52620;SDS011;38515;53.160;6.990;2023-06-22T07:05:27;116.97;;;111.35;;
52620;SDS011;38515;53.160;6.990;2023-06-22T07:07:52;85.75;;;81.50;;
52620;SDS011;38515;53.160;6.990;2023-06-22T07:10:18;109.88;;;104.90;;
52620;SDS011;38515;53.160;6.990;2023-06-22T07:12:44;86.05;;;81.75;;
52620;SDS011;38515;53.160;6.990;2023-06-22T07:15:11;130.07;;;124.35;;
52620;SDS011;38515;53.160;6.990;2023-06-22T07:17:39;121.47;;;116.07;;
52620;SDS011;38515;53.160;6.990;2023-06-22T07:20:06;156.13;;;149.48;;
52620;SDS011;38515;53.160;6.990;2023-06-22T07:22:40;183.98;;;176.02;;
52620;SDS011;38515;53.160;6.990;2023-06-22T07:25:08;242.73;;;232.60;;
52620;SDS011;38515;53.160;6.990;2023-06-22T07:27:38;229.32;;;219.55;;
52620;SDS011;38515;53.160;6.990;2023-06-22T07:30:08;214.43;;;205.23;;
52620;SDS011;38515;53.160;6.990;2023-06-22T07:32:34;119.40;;;114.30;;
52620;SDS011;38515;53.160;6.990;2023-06-22T07:35:01;177.15;;;170.00;;
52620;SDS011;38515;53.160;6.990;2023-06-22T07:37:27;222.73;;;213.38;;
52620;SDS011;38515;53.160;6.990;2023-06-22T07:39:54;254.70;;;243.82;;
52620;SDS011;38515;53.160;6.990;2023-06-22T07:42:24;139.15;;;133.55;;
52620;SDS011;38515;53.160;6.990;2023-06-22T07:44:50;278.13;;;266.17;;
52620;SDS011;38515;53.160;6.990;2023-06-22T07:47:16;259.63;;;248.77;;
52620;SDS011;38515;53.160;6.990;2023-06-22T07:49:45;203.95;;;195.40;;
52620;SDS011;38515;53.160;6.990;2023-06-22T07:52:12;239.90;;;230.20;;
52620;SDS011;38515;53.160;6.990;2023-06-22T07:54:37;250.63;;;239.75;;
52620;SDS011;38515;53.160;6.990;2023-06-22T07:57:03;159.88;;;152.95;;
52620;SDS011;38515;53.160;6.990;2023-06-22T07:59:30;144.32;;;137.60;;
52620;SDS011;38515;53.160;6.990;2023-06-22T08:01:56;122.55;;;117.07;;
52620;SDS011;38515;53.160;6.990;2023-06-22T08:04:22;134.20;;;128.27;;
52620;SDS011;38515;53.160;6.990;2023-06-22T08:06:48;152.55;;;145.95;;
52620;SDS011;38515;53.160;6.990;2023-06-22T08:09:14;173.20;;;165.93;;
52620;SDS011;38515;53.160;6.990;2023-06-22T08:11:40;257.13;;;244.40;;
52620;SDS011;38515;53.160;6.990;2023-06-22T08:14:06;188.27;;;179.77;;
52620;SDS011;38515;53.160;6.990;2023-06-22T08:16:32;125.45;;;119.85;;
52620;SDS011;38515;53.160;6.990;2023-06-22T08:18:58;161.85;;;154.80;;
52620;SDS011;38515;53.160;6.990;2023-06-22T08:21:24;188.75;;;181.13;;
52620;SDS011;38515;53.160;6.990;2023-06-22T08:23:49;174.98;;;167.52;;
52620;SDS011;38515;53.160;6.990;2023-06-22T08:26:15;162.85;;;155.48;;
52620;SDS011;38515;53.160;6.990;2023-06-22T08:28:41;194.02;;;185.63;;
52620;SDS011;38515;53.160;6.990;2023-06-22T08:31:07;144.85;;;138.38;;
52620;SDS011;38515;53.160;6.990;2023-06-22T08:33:33;116.93;;;112.10;;
52620;SDS011;38515;53.160;6.990;2023-06-22T08:35:59;143.95;;;136.43;;
52620;SDS011;38515;53.160;6.990;2023-06-22T08:38:25;93.53;;;89.10;;
52620;SDS011;38515;53.160;6.990;2023-06-22T08:40:51;109.43;;;104.25;;
52620;SDS011;38515;53.160;6.990;2023-06-22T08:43:17;163.32;;;155.90;;
52620;SDS011;38515;53.160;6.990;2023-06-22T08:45:44;148.90;;;142.57;;
52620;SDS011;38515;53.160;6.990;2023-06-22T08:48:09;324.30;;;308.50;;
52620;SDS011;38515;53.160;6.990;2023-06-22T08:50:35;264.90;;;252.82;;
52620;SDS011;38515;53.160;6.990;2023-06-22T08:53:01;319.80;;;305.00;;
52620;SDS011;38515;53.160;6.990;2023-06-22T08:55:27;294.60;;;281.48;;
52620;SDS011;38515;53.160;6.990;2023-06-22T08:57:53;291.45;;;278.17;;
52620;SDS011;38515;53.160;6.990;2023-06-22T09:00:20;359.77;;;342.77;;
52620;SDS011;38515;53.160;6.990;2023-06-22T09:02:46;388.20;;;369.10;;
52620;SDS011;38515;53.160;6.990;2023-06-22T09:05:13;262.67;;;250.93;;
52620;SDS011;38515;53.160;6.990;2023-06-22T09:07:43;306.80;;;292.23;;
52620;SDS011;38515;53.160;6.990;2023-06-22T09:10:09;340.48;;;324.02;;
52620;SDS011;38515;53.160;6.990;2023-06-22T09:12:35;363.13;;;345.80;;
52620;SDS011;38515;53.160;6.990;2023-06-22T09:15:02;358.40;;;341.65;;
52620;SDS011;38515;53.160;6.990;2023-06-22T09:17:29;385.77;;;368.00;;
52620;SDS011;38515;53.160;6.990;2023-06-22T09:19:55;377.48;;;358.98;;
52620;SDS011;38515;53.160;6.990;2023-06-22T09:22:21;306.75;;;292.88;;
52620;SDS011;38515;53.160;6.990;2023-06-22T09:24:46;288.10;;;275.15;;
52620;SDS011;38515;53.160;6.990;2023-06-22T09:27:12;320.08;;;305.05;;
52620;SDS011;38515;53.160;6.990;2023-06-22T09:29:38;321.77;;;307.38;;
52620;SDS011;38515;53.160;6.990;2023-06-22T09:32:04;274.02;;;261.42;;
52620;SDS011;38515;53.160;6.990;2023-06-22T09:34:32;242.38;;;232.23;;
52620;SDS011;38515;53.160;6.990;2023-06-22T09:36:58;352.88;;;336.40;;
52620;SDS011;38515;53.160;6.990;2023-06-22T09:39:25;355.88;;;339.05;;
52620;SDS011;38515;53.160;6.990;2023-06-22T09:41:51;338.60;;;323.08;;
52620;SDS011;38515;53.160;6.990;2023-06-22T09:44:19;279.55;;;267.15;;
52620;SDS011;38515;53.160;6.990;2023-06-22T09:46:45;292.42;;;279.77;;
52620;SDS011;38515;53.160;6.990;2023-06-22T09:49:11;212.30;;;203.38;;
52620;SDS011;38515;53.160;6.990;2023-06-22T09:51:37;230.20;;;220.50;;
52620;SDS011;38515;53.160;6.990;2023-06-22T09:54:02;237.00;;;226.93;;
52620;SDS011;38515;53.160;6.990;2023-06-22T09:56:29;177.70;;;170.45;;
52620;SDS011;38515;53.160;6.990;2023-06-22T09:58:55;156.93;;;150.38;;
52620;SDS011;38515;53.160;6.990;2023-06-22T10:01:21;119.03;;;113.65;;
52620;SDS011;38515;53.160;6.990;2023-06-22T10:03:47;120.15;;;114.90;;
52620;SDS011;38515;53.160;6.990;2023-06-22T10:06:13;184.07;;;176.60;;
52620;SDS011;38515;53.160;6.990;2023-06-22T10:08:40;109.95;;;105.35;;
52620;SDS011;38515;53.160;6.990;2023-06-22T10:11:06;137.93;;;131.70;;
52620;SDS011;38515;53.160;6.990;2023-06-22T10:13:32;100.57;;;96.32;;
52620;SDS011;38515;53.160;6.990;2023-06-22T10:15:58;97.03;;;92.93;;
52620;SDS011;38515;53.160;6.990;2023-06-22T10:18:24;97.28;;;92.80;;
52620;SDS011;38515;53.160;6.990;2023-06-22T10:20:50;117.47;;;112.57;;
52620;SDS011;38515;53.160;6.990;2023-06-22T10:23:17;97.10;;;92.85;;
52620;SDS011;38515;53.160;6.990;2023-06-22T10:25:44;92.07;;;88.18;;
52620;SDS011;38515;53.160;6.990;2023-06-22T10:28:10;106.13;;;101.28;;
52620;SDS011;38515;53.160;6.990;2023-06-22T10:30:35;135.75;;;130.13;;
52620;SDS011;38515;53.160;6.990;2023-06-22T10:33:01;118.55;;;113.65;;
52620;SDS011;38515;53.160;6.990;2023-06-22T10:35:27;90.15;;;86.30;;
52620;SDS011;38515;53.160;6.990;2023-06-22T10:37:54;107.45;;;102.85;;
52620;SDS011;38515;53.160;6.990;2023-06-22T10:40:21;80.40;;;76.93;;
52620;SDS011;38515;53.160;6.990;2023-06-22T10:42:47;107.65;;;103.05;;
52620;SDS011;38515;53.160;6.990;2023-06-22T10:45:15;80.78;;;77.05;;
52620;SDS011;38515;53.160;6.990;2023-06-22T10:47:41;90.15;;;86.32;;
52620;SDS011;38515;53.160;6.990;2023-06-22T10:50:07;82.85;;;79.07;;
52620;SDS011;38515;53.160;6.990;2023-06-22T10:52:33;85.63;;;81.93;;
52620;SDS011;38515;53.160;6.990;2023-06-22T10:54:59;77.40;;;73.90;;
52620;SDS011;38515;53.160;6.990;2023-06-22T10:57:25;73.47;;;70.38;;
52620;SDS011;38515;53.160;6.990;2023-06-22T10:59:51;110.22;;;105.90;;
52620;SDS011;38515;53.160;6.990;2023-06-22T11:02:17;72.90;;;69.93;;
52620;SDS011;38515;53.160;6.990;2023-06-22T11:04:43;80.45;;;76.75;;
52620;SDS011;38515;53.160;6.990;2023-06-22T11:07:12;80.18;;;76.80;;
52620;SDS011;38515;53.160;6.990;2023-06-22T11:09:38;83.00;;;79.60;;
52620;SDS011;38515;53.160;6.990;2023-06-22T11:12:04;80.65;;;76.97;;
52620;SDS011;38515;53.160;6.990;2023-06-22T11:14:31;81.40;;;77.95;;
52620;SDS011;38515;53.160;6.990;2023-06-22T11:16:58;71.97;;;68.70;;
52620;SDS011;38515;53.160;6.990;2023-06-22T11:19:25;76.57;;;73.28;;
52620;SDS011;38515;53.160;6.990;2023-06-22T11:21:51;59.40;;;56.58;;
52620;SDS011;38515;53.160;6.990;2023-06-22T11:24:17;76.95;;;73.47;;
52620;SDS011;38515;53.160;6.990;2023-06-22T11:26:43;61.55;;;58.38;;
52620;SDS011;38515;53.160;6.990;2023-06-22T11:29:09;73.78;;;70.75;;
52620;SDS011;38515;53.160;6.990;2023-06-22T11:31:35;73.30;;;70.05;;
52620;SDS011;38515;53.160;6.990;2023-06-22T11:34:02;58.58;;;55.75;;
52620;SDS011;38515;53.160;6.990;2023-06-22T11:36:28;58.00;;;55.13;;
52620;SDS011;38515;53.160;6.990;2023-06-22T11:38:58;54.50;;;51.90;;
52620;SDS011;38515;53.160;6.990;2023-06-22T11:41:24;54.85;;;52.15;;
52620;SDS011;38515;53.160;6.990;2023-06-22T11:43:50;69.03;;;65.55;;
52620;SDS011;38515;53.160;6.990;2023-06-22T11:46:16;61.42;;;58.33;;
52620;SDS011;38515;53.160;6.990;2023-06-22T11:48:42;84.10;;;80.30;;
52620;SDS011;38515;53.160;6.990;2023-06-22T11:51:08;73.57;;;70.18;;
52620;SDS011;38515;53.160;6.990;2023-06-22T11:53:34;169.07;;;161.95;;
52620;SDS011;38515;53.160;6.990;2023-06-22T11:56:00;74.55;;;71.38;;
52620;SDS011;38515;53.160;6.990;2023-06-22T11:58:26;100.00;;;95.60;;
52620;SDS011;38515;53.160;6.990;2023-06-22T12:00:53;57.30;;;54.72;;
52620;SDS011;38515;53.160;6.990;2023-06-22T12:03:19;67.40;;;64.32;;
52620;SDS011;38515;53.160;6.990;2023-06-22T12:05:49;82.70;;;79.00;;
52620;SDS011;38515;53.160;6.990;2023-06-22T12:08:19;91.53;;;87.45;;
52620;SDS011;38515;53.160;6.990;2023-06-22T12:10:45;88.07;;;84.18;;
52620;SDS011;38515;53.160;6.990;2023-06-22T12:13:11;84.15;;;80.45;;
52620;SDS011;38515;53.160;6.990;2023-06-22T12:15:37;75.20;;;71.68;;
52620;SDS011;38515;53.160;6.990;2023-06-22T12:18:02;117.38;;;112.35;;
52620;SDS011;38515;53.160;6.990;2023-06-22T12:20:28;105.32;;;100.38;;
52620;SDS011;38515;53.160;6.990;2023-06-22T12:22:54;102.03;;;97.43;;
52620;SDS011;38515;53.160;6.990;2023-06-22T12:25:23;123.80;;;118.55;;
52620;SDS011;38515;53.160;6.990;2023-06-22T12:27:49;102.80;;;97.93;;
52620;SDS011;38515;53.160;6.990;2023-06-22T12:30:16;119.05;;;113.60;;
52620;SDS011;38515;53.160;6.990;2023-06-22T12:32:42;134.48;;;129.00;;
52620;SDS011;38515;53.160;6.990;2023-06-22T12:35:08;101.90;;;97.13;;
52620;SDS011;38515;53.160;6.990;2023-06-22T12:37:40;183.10;;;175.93;;
52620;SDS011;38515;53.160;6.990;2023-06-22T12:40:07;132.32;;;126.78;;
52620;SDS011;38515;53.160;6.990;2023-06-22T12:42:34;103.30;;;99.00;;
52620;SDS011;38515;53.160;6.990;2023-06-22T12:45:00;127.03;;;121.32;;
52620;SDS011;38515;53.160;6.990;2023-06-22T12:47:26;121.78;;;116.88;;
52620;SDS011;38515;53.160;6.990;2023-06-22T12:49:52;189.35;;;181.43;;
52620;SDS011;38515;53.160;6.990;2023-06-22T12:52:18;118.78;;;114.10;;
52620;SDS011;38515;53.160;6.990;2023-06-22T12:54:43;124.55;;;119.38;;
52620;SDS011;38515;53.160;6.990;2023-06-22T12:57:09;148.20;;;141.88;;
52620;SDS011;38515;53.160;6.990;2023-06-22T12:59:35;105.38;;;100.80;;
52620;SDS011;38515;53.160;6.990;2023-06-22T13:02:01;195.32;;;187.38;;
52620;SDS011;38515;53.160;6.990;2023-06-22T13:04:27;189.70;;;182.10;;
52620;SDS011;38515;53.160;6.990;2023-06-22T13:06:53;213.85;;;205.23;;
52620;SDS011;38515;53.160;6.990;2023-06-22T13:09:19;201.05;;;192.70;;
52620;SDS011;38515;53.160;6.990;2023-06-22T13:11:45;155.77;;;149.52;;
52620;SDS011;38515;53.160;6.990;2023-06-22T13:14:11;127.90;;;122.32;;
52620;SDS011;38515;53.160;6.990;2023-06-22T13:16:37;86.40;;;82.75;;
52620;SDS011;38515;53.160;6.990;2023-06-22T13:19:03;108.43;;;103.88;;
52620;SDS011;38515;53.160;6.990;2023-06-22T13:21:30;212.20;;;203.48;;
52620;SDS011;38515;53.160;6.990;2023-06-22T13:23:56;167.90;;;161.18;;
52620;SDS011;38515;53.160;6.990;2023-06-22T13:26:22;208.77;;;199.82;;
52620;SDS011;38515;53.160;6.990;2023-06-22T13:28:48;119.18;;;114.22;;
52620;SDS011;38515;53.160;6.990;2023-06-22T13:31:14;148.48;;;142.43;;
52620;SDS011;38515;53.160;6.990;2023-06-22T13:33:40;203.27;;;195.35;;
52620;SDS011;38515;53.160;6.990;2023-06-22T13:36:06;172.45;;;165.63;;
52620;SDS011;38515;53.160;6.990;2023-06-22T13:38:33;172.05;;;165.05;;
52620;SDS011;38515;53.160;6.990;2023-06-22T13:41:04;174.43;;;166.25;;
52620;SDS011;38515;53.160;6.990;2023-06-22T13:43:30;177.18;;;169.57;;
52620;SDS011;38515;53.160;6.990;2023-06-22T13:45:57;125.43;;;120.10;;
52620;SDS011;38515;53.160;6.990;2023-06-22T13:48:23;161.70;;;154.70;;
52620;SDS011;38515;53.160;6.990;2023-06-22T13:50:51;205.18;;;196.75;;
52620;SDS011;38515;53.160;6.990;2023-06-22T13:53:17;178.55;;;171.20;;
52620;SDS011;38515;53.160;6.990;2023-06-22T13:55:43;244.90;;;234.40;;
52620;SDS011;38515;53.160;6.990;2023-06-22T13:58:09;149.00;;;142.80;;
52620;SDS011;38515;53.160;6.990;2023-06-22T14:00:35;230.18;;;220.77;;
52620;SDS011;38515;53.160;6.990;2023-06-22T14:03:01;118.68;;;113.30;;
52620;SDS011;38515;53.160;6.990;2023-06-22T14:05:27;89.28;;;85.22;;
52620;SDS011;38515;53.160;6.990;2023-06-22T14:07:53;115.85;;;110.97;;